Home > Products > Valid Products > TAF

000
FTUS42 KILM 262328
TAFCRE
TAF
KCRE 262328Z 2700/2724 19012KT P6SM FEW080
     FM270300 20004KT P6SM FEW250
      TEMPO 2708/2710 6SM BR
     FM271200 10006KT P6SM SKC
     FM271700 15010KT P6SM SKC=



000
FTUS42 KILM 262328
TAFLBT
TAF
KLBT 262328Z 2700/2724 VRB04KT P6SM SKC
     FM271200 19005KT P6SM SKC
     FM271900 15007KT P6SM FEW250=



000
FTUS42 KILM 262328
TAFMYR
TAF
KMYR 262328Z 2700/2724 18011KT P6SM FEW080
     FM270300 18004KT P6SM FEW250
     FM271200 12007KT P6SM SKC
     FM271600 15011KT P6SM SKC
      AMD LTD TO CLD VIS AND WIND 2704/2711=



000
FTUS42 KILM 262328
TAFILM
TAF
KILM 262328Z 2700/2724 18010KT P6SM SKC
     FM270200 VRB04KT P6SM FEW250
     FM271200 07004KT P6SM SKC
     FM271600 14009KT P6SM SKC=



000
FTUS42 KILM 262328
TAFFLO
TAF
KFLO 262328Z 2700/2724 VRB04KT P6SM SKC
     FM271400 17007KT P6SM SKC
     FM271900 13007KT P6SM FEW250=



000
FTUS42 KILM 261123
TAFFLO
TAF
KFLO 261123Z 2612/2712 21006KT P6SM SCT050 SCT080
     FM270100 VRB02KT P6SM FEW070=



000
FTUS42 KILM 261123
TAFMYR
TAF
KMYR 261123Z 2612/2712 23006KT P6SM SCT080
     FM261600 18011KT P6SM SCT050 SCT080
     FM270300 VRB02KT P6SM SCT070=



000
FTUS42 KILM 261123
TAFCRE
TAF
KCRE 261123Z 2612/2712 22005KT P6SM SCT080
     FM261600 19011KT P6SM SCT050 SCT080
     FM270300 VRB02KT P6SM SCT070=



000
FTUS42 KILM 261123
TAFLBT
TAF
KLBT 261123Z 2612/2712 20006KT P6SM SCT050 SCT080
      TEMPO 2612/2613 4SM BR
     FM270000 VRB02KT P6SM FEW070=



000
FTUS42 KILM 261123
TAFILM
TAF
KILM 261123Z 2612/2712 23006KT P6SM SCT080
     FM261700 20010KT P6SM SCT050 SCT080
     FM270100 VRB02KT P6SM SCT070 SCT250=



000
FTUS42 KILM 260247 AAA
TAFMYR
TAF AMD
KMYR 260247Z 2603/2624 22006KT P6SM FEW250
     FM261800 17012KT P6SM SKC
      AMD LTD TO CLD VIS AND WIND 2604/2611=



000
FTUS42 KILM 252337
TAFLBT
TAF
KLBT 252337Z 2600/2624 VRB05KT P6SM SCT060
     FM261200 23005KT P6SM SKC
     FM261900 20006KT P6SM FEW100 SCT250=



000
FTUS42 KILM 252337
TAFFLO
TAF
KFLO 252337Z 2600/2624 23004KT P6SM FEW070
     FM261200 24006KT P6SM SKC
     FM261900 18007KT P6SM FEW100 FEW250=



000
FTUS42 KILM 252337
TAFILM
TAF
KILM 252337Z 2600/2624 VRB04KT P6SM SKC
     FM261200 24006KT P6SM FEW250
     FM261900 18009KT P6SM SKC=



000
FTUS42 KILM 252337
TAFMYR
TAF
KMYR 252337Z 2600/2624 20012KT P6SM SKC
     FM260200 22006KT P6SM FEW250
     FM261800 17012KT P6SM SKC=



000
FTUS42 KILM 252337
TAFCRE
TAF
KCRE 252337Z 2600/2624 20011KT P6SM SKC
     FM260200 23006KT P6SM FEW250
     FM261800 18010KT P6SM SKC=



000
FTUS42 KILM 251121
TAFLBT
TAF
KLBT 251121Z 2512/2612 22005KT P6SM SCT050=



000
FTUS42 KILM 251121
TAFILM
TAF
KILM 251121Z 2512/2612 26006KT P6SM SKC
     FM251900 19010G17KT P6SM SCT050
     FM260000 21004KT P6SM SKC=



000
FTUS42 KILM 251121
TAFMYR
TAF
KMYR 251121Z 2512/2612 23006KT P6SM SKC
     FM251700 18010G17KT P6SM SCT050
     FM260000 19008KT P6SM SKC
     FM260400 21003KT P6SM SKC=



000
FTUS42 KILM 251121
TAFFLO
TAF
KFLO 251121Z 2512/2612 22005KT P6SM SCT050=



000
FTUS42 KILM 251121
TAFCRE
TAF
KCRE 251121Z 2512/2612 22006KT P6SM SKC
     FM251700 19010G17KT P6SM SCT050
     FM260000 21007KT P6SM SKC
     FM260300 22003KT P6SM SKC=



000
FTUS42 KILM 241720
TAFMYR
TAF
KMYR 241720Z 2418/2518 21012KT P6SM SKC
     FM250000 23006KT P6SM SKC=



000
FTUS42 KILM 241720
TAFFLO
TAF
KFLO 241720Z 2418/2518 23005KT P6SM SKC=



000
FTUS42 KILM 241720
TAFILM
TAF
KILM 241720Z 2418/2518 25008KT P6SM SKC
     FM250000 24003KT P6SM SKC=



000
FTUS42 KILM 241720
TAFLBT
TAF
KLBT 241720Z 2418/2518 25006KT P6SM SKC=



000
FTUS42 KILM 241720
TAFCRE
TAF
KCRE 241720Z 2418/2518 19012KT P6SM SKC
     FM250000 24006KT P6SM SKC=



000
FTUS42 KILM 241120
TAFILM
TAF
KILM 241120Z 2412/2512 00000KT P6SM FEW040
     FM241300 24006KT P6SM FEW060
     FM242000 21012KT P6SM SKC
     FM250000 VRB03KT P6SM SKC=



000
FTUS42 KILM 241120
TAFLBT
TAF
KLBT 241120Z 2412/2512 00000KT P6SM SKC
     FM241400 26006KT P6SM FEW060
     FM250000 00000KT P6SM SKC=



000
FTUS42 KILM 241120
TAFMYR
TAF
KMYR 241120Z 2412/2512 21007KT P6SM FEW060
     FM241900 20013KT P6SM SKC
     FM250000 19005KT P6SM SKC=



000
FTUS42 KILM 241120
TAFCRE
TAF
KCRE 241120Z 2412/2512 21007KT P6SM FEW060
     FM241900 20013KT P6SM SKC
     FM250000 21005KT P6SM SKC=



000
FTUS42 KILM 241120
TAFFLO
TAF
KFLO 241120Z 2412/2512 24006KT P6SM FEW060
     FM250000 VRB03KT P6SM SKC=



000
FTUS42 KILM 240831 AAD
TAFCRE
TAF AMD
KCRE 240831Z 2409/2506 00000KT P6SM SKC
      TEMPO 2409/2412 2SM BR SCT001
     FM241200 21007KT P6SM FEW060
     FM241900 20013KT P6SM SKC
     FM250000 21005KT P6SM SKC=



000
FTUS42 KILM 240821 AAC
TAFCRE
TAF AMD
KCRE 240821Z 2408/2506 00000KT P6SM SKC
      TEMPO 2408/2412 3/4SM BR SCT001
     FM241200 21007KT P6SM FEW060
     FM241900 20013KT P6SM SKC
     FM250000 21005KT P6SM SKC=



000
FTUS42 KILM 240820 AAA
TAFLBT
TAF AMD
KLBT 240820Z 2408/2506 00000KT P6SM SKC
     FM241400 26006KT P6SM FEW060
     FM250000 00000KT P6SM SKC=



    US Dept of Commerce
    National Oceanic and Atmospheric Administration
    National Weather Service
    1325 East West Highway
    Silver Spring, MD 20910
    Page Author: NWS Internet Services Team
Disclaimer
Information Quality
Credits
Glossary
Privacy Policy
Freedom of Information Act (FOIA)
About Us
Career Opportunities